»·PEaware :: WAT2489 KTUS-KMYF

WAT2489 :: KTUS-KMYF

FLIGHT INFORMATION

Flight Status: Arrived
Operator:
Walker Air Transport
More flights by this operator :: More flights under this callsign
Pilot: Graham D. (41507)
Aircraft: Unknown
(EPIC)
More flights by this aircraft type
Origin: KTUS Tucson Intl
United States
Destination: KMYF Montgomery
United States
More flights between these airports :: More routes between these airports
Route: WLDKT3 GBN J2 IPL V66 MZB
File this flight plan on PilotEdge
Remarks:
Altitude:
(Current/Filed)
30,000ft
Speed:
(Current/Filed)
300kts
Departed: 19-Aug-23 10:07 AM
Arrived: 19-Aug-23 11:18 AM
Distance/Time
Traveled:
317nm/1:10
Distance/Time
To Go:
Arrived

Flight Plot

Page will automatically refresh every two minutes.

Flight plan parsing failed; only flown route is shown


Map Options




Map Legend


Flown Route
Filed Route
Departure Airport
Arrival Airport
Navaid (VOR, NDB)
Fix

Horizontal Profiles

Position Reports

Time Latitude Longitude Heading Altitude Ground
Speed
19-Aug-23 09:48 32.127940 -110.942567 317 2571ft 0kts
19-Aug-23 09:49 32.127940 -110.942567 317 2571ft 0kts
19-Aug-23 09:50 32.127940 -110.942567 317 2571ft 0kts
19-Aug-23 09:51 32.127940 -110.942567 317 2571ft 0kts
19-Aug-23 09:52 32.127940 -110.942567 317 2571ft 0kts
19-Aug-23 09:53 32.127940 -110.942567 317 2571ft 0kts
19-Aug-23 09:54 32.127940 -110.942567 317 2571ft 0kts
19-Aug-23 09:55 32.127940 -110.942567 317 2571ft 0kts
19-Aug-23 09:56 32.127940 -110.942567 317 2571ft 0kts
19-Aug-23 09:57 32.127940 -110.942567 317 2571ft 0kts
19-Aug-23 09:58 32.127940 -110.942567 317 2571ft 0kts
19-Aug-23 09:59 32.127940 -110.942567 317 2571ft 0kts
19-Aug-23 10:00 32.127443 -110.944441 225 2569ft 16kts
19-Aug-23 10:01 32.123752 -110.945763 132 2576ft 18kts
19-Aug-23 10:02 32.119906 -110.941357 135 2593ft 19kts
19-Aug-23 10:03 32.115774 -110.936499 132 2607ft 21kts
19-Aug-23 10:04 32.112216 -110.932292 136 2619ft 14kts
19-Aug-23 10:05 32.111130 -110.932382 223 2620ft 6kts
19-Aug-23 10:06 32.123161 -110.948297 308 2941ft 135kts
19-Aug-23 10:07 32.152671 -110.983579 313 5596ft 158kts
19-Aug-23 10:08 32.190662 -111.027773 314 7860ft 209kts
19-Aug-23 10:09 32.226008 -111.081738 281 10334ft 222kts
19-Aug-23 10:10 32.237360 -111.155766 277 12520ft 237kts
19-Aug-23 10:11 32.248730 -111.233702 277 14552ft 245kts
19-Aug-23 10:12 32.260398 -111.314031 277 16342ft 253kts
19-Aug-23 10:13 32.272411 -111.397115 276 17901ft 261kts
19-Aug-23 10:14 32.291851 -111.479524 302 19359ft 268kts
19-Aug-23 10:15 32.333356 -111.553153 302 20621ft 273kts
19-Aug-23 10:16 32.375682 -111.628277 302 21757ft 276kts
19-Aug-23 10:17 32.418432 -111.704309 301 22760ft 279kts
19-Aug-23 10:18 32.461425 -111.780912 299 23736ft 281kts
19-Aug-23 10:19 32.504926 -111.858626 298 24737ft 284kts
19-Aug-23 10:20 32.548180 -111.936011 298 25731ft 281kts
19-Aug-23 10:21 32.591001 -112.012804 297 26728ft 277kts
19-Aug-23 10:22 32.632759 -112.087817 296 27720ft 270kts
19-Aug-23 10:23 32.673675 -112.161513 296 28655ft 267kts
19-Aug-23 10:24 32.714699 -112.235516 295 29411ft 268kts
19-Aug-23 10:25 32.755740 -112.309710 295 30003ft 273kts
19-Aug-23 10:26 32.799039 -112.388143 296 30015ft 293kts
19-Aug-23 10:27 32.844666 -112.470932 297 30013ft 304kts
19-Aug-23 10:28 32.891338 -112.555824 297 30013ft 311kts
19-Aug-23 10:29 32.939005 -112.642735 297 30013ft 315kts
19-Aug-23 10:30 32.947472 -112.737629 255 30014ft 291kts
19-Aug-23 10:31 32.934950 -112.833140 254 30012ft 293kts
19-Aug-23 10:32 32.922012 -112.928793 254 30004ft 294kts
19-Aug-23 10:33 32.908890 -113.025198 254 29996ft 296kts
19-Aug-23 10:34 32.895632 -113.122036 254 29994ft 296kts
19-Aug-23 10:35 32.882302 -113.218830 254 29994ft 297kts
19-Aug-23 10:36 32.868891 -113.315626 254 29994ft 298kts
19-Aug-23 10:37 32.855305 -113.413123 254 29993ft 298kts
19-Aug-23 10:38 32.841683 -113.510308 254 29993ft 299kts
19-Aug-23 10:39 32.827868 -113.608300 254 29993ft 300kts
19-Aug-23 10:40 32.814009 -113.706016 254 29993ft 301kts
19-Aug-23 10:41 32.800017 -113.804093 254 29993ft 301kts
19-Aug-23 10:42 32.785943 -113.902153 254 29993ft 301kts
19-Aug-23 10:43 32.775709 -114.001290 262 29994ft 307kts
19-Aug-23 10:44 32.774508 -114.103316 262 29990ft 309kts
19-Aug-23 10:45 32.773362 -114.205504 262 29986ft 311kts
19-Aug-23 10:46 32.772122 -114.308719 262 29985ft 312kts
19-Aug-23 10:47 32.770802 -114.411510 262 29985ft 312kts
19-Aug-23 10:48 32.769391 -114.514762 262 29984ft 313kts
19-Aug-23 10:49 32.767845 -114.618320 261 29985ft 314kts
19-Aug-23 10:50 32.765971 -114.722020 261 29983ft 314kts
19-Aug-23 10:51 32.764014 -114.825176 261 29984ft 314kts
19-Aug-23 10:53 32.761957 -114.929017 260 29984ft 314kts
19-Aug-23 10:54 32.759812 -115.032877 260 29986ft 315kts
19-Aug-23 10:55 32.757473 -115.139882 261 28980ft 346kts
19-Aug-23 10:56 32.754843 -115.258367 263 27399ft 370kts
19-Aug-23 10:57 32.751949 -115.382445 263 25686ft 379kts
19-Aug-23 10:58 32.749009 -115.508037 267 24028ft 379kts
19-Aug-23 10:59 32.752122 -115.633749 268 22085ft 380kts
19-Aug-23 11:00 32.755202 -115.757870 268 20086ft 372kts
19-Aug-23 11:01 32.758076 -115.878777 268 18089ft 363kts
19-Aug-23 11:02 32.760726 -115.994555 269 16262ft 342kts
19-Aug-23 11:03 32.763157 -116.104989 269 14594ft 327kts
19-Aug-23 11:04 32.765375 -116.211089 269 13149ft 314kts
19-Aug-23 11:05 32.767466 -116.312661 270 11777ft 304kts
19-Aug-23 11:06 32.769404 -116.412110 270 10454ft 298kts
19-Aug-23 11:07 32.771193 -116.508116 270 10007ft 284kts
19-Aug-23 11:08 32.772858 -116.602159 270 10009ft 284kts
19-Aug-23 11:09 32.774463 -116.696290 270 9446ft 278kts
19-Aug-23 11:10 32.775919 -116.784271 270 7827ft 257kts
19-Aug-23 11:11 32.756774 -116.857957 212 5788ft 242kts
19-Aug-23 11:12 32.729646 -116.917803 289 4275ft 224kts
19-Aug-23 11:13 32.753675 -116.981371 295 3196ft 190kts
19-Aug-23 11:14 32.774560 -117.034161 294 2335ft 161kts
19-Aug-23 11:15 32.792468 -117.079525 291 1450ft 141kts
19-Aug-23 11:16 32.806120 -117.114142 289 823ft 98kts
19-Aug-23 11:16 32.815244 -117.137336 288 428ft 86kts
19-Aug-23 11:18 32.817293 -117.145098 202 426ft 0kts
19-Aug-23 11:19 32.817293 -117.145098 202 426ft 0kts
19-Aug-23 11:20 32.815665 -117.144148 112 426ft 18kts

Navigation Log

Ident Type
Flight plan parsing failed, navigation log unavailable